createdAt,value
2023-05-14T00:00:58.205Z,10.57
2023-05-14T00:01:58.432Z,10.55
2023-05-14T00:02:58.577Z,10.54
2023-05-14T00:03:58.787Z,10.54
2023-05-14T00:04:58.504Z,10.52
2023-05-14T00:05:58.576Z,10.46
2023-05-14T00:06:58.646Z,10.43
2023-05-14T00:07:58.712Z,10.42
2023-05-14T00:08:58.792Z,10.34
2023-05-14T00:09:58.849Z,10.31
2023-05-14T00:10:58.927Z,10.28
2023-05-14T00:11:58.991Z,10.25
2023-05-14T00:12:59.050Z,10.24
2023-05-14T00:13:59.120Z,10.22
2023-05-14T00:14:59.241Z,10.25
2023-05-14T00:15:59.352Z,10.25
2023-05-14T00:16:59.396Z,10.26
2023-05-14T00:17:59.507Z,10.26
2023-05-14T00:18:59.569Z,10.31
2023-05-14T00:19:59.636Z,10.29
2023-05-14T00:20:59.763Z,10.26
2023-05-14T00:21:59.811Z,10.24
2023-05-14T00:22:59.923Z,10.22
2023-05-14T00:24:00.022Z,10.16
2023-05-14T00:25:00.110Z,10.11
2023-05-14T00:26:00.213Z,10.10
2023-05-14T00:27:00.273Z,10.10
2023-05-14T00:28:00.320Z,10.09
2023-05-14T00:29:00.457Z,10.04
2023-05-14T00:30:00.505Z,10.04
2023-05-14T00:31:00.609Z,10.04
2023-05-14T00:32:00.654Z,10.01
2023-05-14T00:33:00.795Z,10.02
2023-05-14T00:34:00.812Z,9.99
2023-05-14T00:35:00.910Z,9.99
2023-05-14T00:36:01.015Z,9.99
2023-05-14T00:37:01.092Z,9.99
2023-05-14T00:38:01.177Z,9.98
2023-05-14T00:39:01.277Z,9.98
2023-05-14T00:40:01.365Z,9.95
2023-05-14T00:41:01.466Z,9.92
2023-05-14T00:42:01.515Z,9.91
2023-05-14T00:43:01.606Z,9.91
2023-05-14T00:44:01.662Z,9.93
2023-05-14T00:45:01.765Z,9.92
2023-05-14T00:46:01.853Z,9.98
2023-05-14T00:47:02.086Z,10.02
2023-05-14T00:48:02.058Z,10.10
2023-05-14T00:49:02.063Z,10.11
2023-05-14T00:50:02.112Z,10.10
2023-05-14T00:51:02.238Z,10.02
2023-05-14T00:52:02.291Z,9.99
2023-05-14T00:53:02.391Z,9.93
2023-05-14T00:54:02.474Z,9.92
2023-05-14T00:55:02.565Z,9.92
2023-05-14T00:56:02.636Z,9.92
2023-05-14T00:57:02.713Z,9.92
2023-05-14T00:58:02.777Z,9.93
2023-05-14T00:59:02.878Z,9.93
2023-05-14T01:00:02.934Z,9.92
2023-05-14T01:01:03.238Z,9.88
2023-05-14T01:02:03.076Z,9.88
2023-05-14T01:03:03.234Z,9.83
2023-05-14T01:04:03.367Z,9.88
2023-05-14T01:05:03.338Z,9.89
2023-05-14T01:06:03.460Z,9.91
2023-05-14T01:07:03.496Z,9.96
2023-05-14T01:08:03.570Z,9.96
2023-05-14T01:09:03.678Z,9.96
2023-05-14T01:10:03.763Z,9.92
2023-05-14T01:11:03.908Z,9.92
2023-05-14T01:12:03.946Z,9.85
2023-05-14T01:13:04.022Z,9.80
2023-05-14T01:14:04.069Z,9.78
2023-05-14T01:15:04.167Z,9.74
2023-05-14T01:16:04.274Z,9.71
2023-05-14T01:17:04.317Z,9.73
2023-05-14T01:18:04.443Z,9.71
2023-05-14T01:19:04.508Z,9.70
2023-05-14T01:20:04.585Z,9.68
2023-05-14T01:21:04.695Z,9.65
2023-05-14T01:22:04.741Z,9.65
2023-05-14T01:23:04.831Z,9.63
2023-05-14T01:24:04.933Z,9.60
2023-05-14T01:25:05.069Z,9.56
2023-05-14T01:26:05.108Z,9.55
2023-05-14T01:27:05.160Z,9.55
2023-05-14T01:28:05.257Z,9.55
2023-05-14T01:29:05.340Z,9.53
2023-05-14T01:30:05.431Z,9.52
2023-05-14T01:31:05.538Z,9.52
2023-05-14T01:32:05.710Z,9.50
2023-05-14T01:33:05.679Z,9.52
2023-05-14T01:34:05.725Z,9.55
2023-05-14T01:35:05.780Z,9.62
2023-05-14T01:36:06.049Z,9.62
2023-05-14T01:37:05.941Z,9.63
2023-05-14T01:38:06.046Z,9.65
2023-05-14T01:39:06.102Z,9.68
2023-05-14T01:40:06.177Z,9.71
2023-05-14T01:41:06.283Z,9.71
2023-05-14T01:42:06.342Z,9.74
2023-05-14T01:43:06.560Z,9.74
2023-05-14T01:44:06.486Z,9.74
2023-05-14T01:45:06.569Z,9.71
2023-05-14T01:46:06.737Z,9.73
2023-05-14T01:47:06.727Z,9.68
2023-05-14T01:48:06.894Z,9.63
2023-05-14T01:49:06.894Z,9.62
2023-05-14T01:50:06.999Z,9.58
2023-05-14T01:51:07.096Z,9.59
2023-05-14T01:52:07.190Z,9.60
2023-05-14T01:53:07.256Z,9.56
2023-05-14T01:54:07.345Z,9.60
2023-05-14T01:55:07.417Z,9.59
2023-05-14T01:56:07.522Z,9.59
2023-05-14T01:57:07.605Z,9.58
2023-05-14T01:58:07.692Z,9.55
2023-05-14T01:59:07.777Z,9.56
2023-05-14T02:00:07.876Z,9.53
2023-05-14T02:01:08.420Z,9.50
2023-05-14T02:02:08.013Z,9.52
2023-05-14T02:03:08.124Z,9.49
2023-05-14T02:04:08.242Z,9.44
2023-05-14T02:05:08.238Z,9.44
2023-05-14T02:06:08.340Z,9.34
2023-05-14T02:07:08.392Z,9.32
2023-05-14T02:08:08.480Z,9.30
2023-05-14T02:09:08.567Z,9.27
2023-05-14T02:10:08.668Z,9.31
2023-05-14T02:11:08.751Z,9.32
2023-05-14T02:12:08.845Z,9.34
2023-05-14T02:13:08.907Z,9.35
2023-05-14T02:14:09.004Z,9.35
2023-05-14T02:15:09.099Z,9.35
2023-05-14T02:16:09.239Z,9.35
2023-05-14T02:17:09.233Z,9.32
2023-05-14T02:18:09.362Z,9.32
2023-05-14T02:19:09.523Z,9.26
2023-05-14T02:20:09.463Z,9.26
2023-05-14T02:21:09.561Z,9.27
2023-05-14T02:22:09.651Z,9.27
2023-05-14T02:23:09.730Z,9.27
2023-05-14T02:24:09.819Z,9.26
2023-05-14T02:25:09.909Z,9.26
2023-05-14T02:26:09.977Z,9.26
2023-05-14T02:27:10.023Z,9.23
2023-05-14T02:28:10.097Z,9.27
2023-05-14T02:29:10.178Z,9.24
2023-05-14T02:30:10.269Z,9.26
2023-05-14T02:31:10.395Z,9.24
2023-05-14T02:32:10.462Z,9.22
2023-05-14T02:33:10.589Z,9.20
2023-05-14T02:34:10.609Z,9.20
2023-05-14T02:35:10.711Z,9.17
2023-05-14T02:36:10.829Z,9.16
2023-05-14T02:37:10.869Z,9.12
2023-05-14T02:38:10.947Z,9.06
2023-05-14T02:39:11.036Z,9.01
2023-05-14T02:40:11.120Z,8.97
2023-05-14T02:41:11.226Z,8.96
2023-05-14T02:42:11.310Z,8.94
2023-05-14T02:43:11.341Z,8.93
2023-05-14T02:44:11.425Z,8.97
2023-05-14T02:45:11.517Z,9.03
2023-05-14T02:46:11.633Z,9.03
2023-05-14T02:47:11.733Z,9.03
2023-05-14T02:48:11.823Z,9.00
2023-05-14T02:49:11.832Z,8.97
2023-05-14T02:50:11.922Z,8.97
2023-05-14T02:51:12.013Z,9.03
2023-05-14T02:52:12.099Z,8.88
2023-05-14T02:53:12.172Z,8.70
2023-05-14T02:54:12.269Z,8.49
2023-05-14T02:55:12.324Z,8.36
2023-05-14T02:56:12.425Z,8.27
2023-05-14T02:57:12.493Z,8.25
2023-05-14T02:58:12.589Z,8.22
2023-05-14T02:59:12.669Z,8.22
2023-05-14T03:00:12.766Z,8.28
2023-05-14T03:01:12.933Z,8.37
2023-05-14T03:02:12.997Z,8.31
2023-05-14T03:03:13.033Z,8.36
2023-05-14T03:04:13.089Z,8.37
2023-05-14T03:05:13.170Z,8.42
2023-05-14T03:06:13.284Z,8.46
2023-05-14T03:07:13.339Z,8.46
2023-05-14T03:08:13.439Z,8.47
2023-05-14T03:09:13.494Z,8.43
2023-05-14T03:10:13.598Z,8.46
2023-05-14T03:11:13.689Z,8.49
2023-05-14T03:12:13.781Z,8.58
2023-05-14T03:13:13.857Z,8.65
2023-05-14T03:14:13.955Z,8.68
2023-05-14T03:15:14.044Z,8.73
2023-05-14T03:16:14.167Z,8.76
2023-05-14T03:17:14.199Z,8.76
2023-05-14T03:18:14.290Z,8.80
2023-05-14T03:19:14.488Z,8.80
2023-05-14T03:20:14.442Z,8.79
2023-05-14T03:21:14.560Z,8.79
2023-05-14T03:22:14.610Z,8.78
2023-05-14T03:23:14.701Z,8.70
2023-05-14T03:24:14.763Z,8.68
2023-05-14T03:25:14.853Z,8.68
2023-05-14T03:26:14.926Z,8.65
2023-05-14T03:27:15.034Z,8.63
2023-05-14T03:28:15.122Z,8.60
2023-05-14T03:29:15.179Z,8.58
2023-05-14T03:30:15.240Z,8.52
2023-05-14T03:31:15.355Z,8.52
2023-05-14T03:32:15.395Z,8.47
2023-05-14T03:33:15.493Z,8.46
2023-05-14T03:34:15.549Z,8.45
2023-05-14T03:35:15.644Z,8.50
2023-05-14T03:36:15.733Z,8.49
2023-05-14T03:37:15.817Z,8.49
2023-05-14T03:38:15.856Z,8.50
2023-05-14T03:39:15.954Z,8.54
2023-05-14T03:40:16.053Z,8.55
2023-05-14T03:41:16.167Z,8.54
2023-05-14T03:42:16.187Z,8.52
2023-05-14T03:43:16.283Z,8.47
2023-05-14T03:44:16.357Z,8.45
2023-05-14T03:45:16.470Z,8.42
2023-05-14T03:46:16.573Z,8.43
2023-05-14T03:47:16.637Z,8.39
2023-05-14T03:48:16.852Z,8.36
2023-05-14T03:49:16.804Z,8.34
2023-05-14T03:50:16.870Z,8.36
2023-05-14T03:51:16.987Z,8.37
2023-05-14T03:52:17.037Z,8.37
2023-05-14T03:53:17.144Z,8.39
2023-05-14T03:54:17.215Z,8.43
2023-05-14T03:55:17.304Z,8.43
2023-05-14T03:56:17.409Z,8.40
2023-05-14T03:57:17.497Z,8.39
2023-05-14T03:58:17.615Z,8.42
2023-05-14T03:59:17.677Z,8.39
2023-05-14T04:00:17.761Z,8.40
2023-05-14T04:01:17.879Z,8.40
2023-05-14T04:02:17.916Z,8.36
2023-05-14T04:03:18.058Z,8.37
2023-05-14T04:04:18.106Z,8.37
2023-05-14T04:05:18.174Z,8.37
2023-05-14T04:06:18.254Z,8.36
2023-05-14T04:07:18.332Z,8.36
2023-05-14T04:08:18.422Z,8.36
2023-05-14T04:09:18.481Z,8.34
2023-05-14T04:10:18.557Z,8.34
2023-05-14T04:11:18.680Z,8.31
2023-05-14T04:12:18.711Z,8.31
2023-05-14T04:13:18.798Z,8.29
2023-05-14T04:14:18.873Z,8.31
2023-05-14T04:15:19.002Z,8.31
2023-05-14T04:16:19.067Z,8.31
2023-05-14T04:17:19.128Z,8.40
2023-05-14T04:18:19.235Z,8.40
2023-05-14T04:19:19.315Z,8.40
2023-05-14T04:20:19.364Z,8.42
2023-05-14T04:21:19.602Z,8.40
2023-05-14T04:22:19.516Z,8.40
2023-05-14T04:23:19.594Z,8.43
2023-05-14T04:24:19.652Z,8.42
2023-05-14T04:25:19.747Z,8.46
2023-05-14T04:26:19.822Z,8.50
2023-05-14T04:27:19.874Z,8.57
2023-05-14T04:28:19.962Z,8.58
2023-05-14T04:29:20.081Z,8.60
2023-05-14T04:30:20.135Z,8.64
2023-05-14T04:31:20.295Z,8.65
2023-05-14T04:32:20.290Z,8.70
2023-05-14T04:33:20.364Z,8.73
2023-05-14T04:34:20.453Z,8.78
2023-05-14T04:35:22.119Z,8.80
2023-05-14T04:36:20.607Z,8.82
2023-05-14T04:37:20.714Z,8.86
2023-05-14T04:38:20.754Z,8.89
2023-05-14T04:39:20.857Z,8.93
2023-05-14T04:40:20.917Z,8.97
2023-05-14T04:41:21.020Z,8.98
2023-05-14T04:42:21.077Z,9.00
2023-05-14T04:43:21.183Z,9.00
2023-05-14T04:44:21.223Z,9.03
2023-05-14T04:45:21.345Z,9.04
2023-05-14T04:46:21.420Z,9.04
2023-05-14T04:47:21.521Z,9.08
2023-05-14T04:48:21.519Z,9.13
2023-05-14T04:49:21.604Z,9.15
2023-05-14T04:50:22.048Z,9.17
2023-05-14T04:51:21.781Z,9.19
2023-05-14T04:52:21.826Z,9.17
2023-05-14T04:53:21.935Z,9.20
2023-05-14T04:54:22.013Z,9.23
2023-05-14T04:55:22.096Z,9.27
2023-05-14T04:56:22.143Z,9.30
2023-05-14T04:57:22.199Z,9.34
2023-05-14T04:58:22.278Z,9.37
2023-05-14T04:59:22.388Z,9.38
2023-05-14T05:00:22.789Z,9.38
2023-05-14T05:01:22.561Z,9.41
2023-05-14T05:02:22.540Z,9.45
2023-05-14T05:03:22.748Z,9.44
2023-05-14T05:04:22.732Z,9.48
2023-05-14T05:05:22.791Z,9.50
2023-05-14T05:06:22.924Z,9.55
2023-05-14T05:07:22.991Z,9.55
2023-05-14T05:08:23.027Z,9.60
2023-05-14T05:09:23.140Z,9.60
2023-05-14T05:10:23.485Z,9.65
2023-05-14T05:11:23.306Z,9.67
2023-05-14T05:12:23.348Z,9.71
2023-05-14T05:13:23.442Z,9.73
2023-05-14T05:14:23.497Z,9.77
2023-05-14T05:15:25.912Z,9.77
2023-05-14T05:16:23.716Z,9.80
2023-05-14T05:17:23.768Z,9.83
2023-05-14T05:18:23.826Z,9.86
2023-05-14T05:19:35.863Z,9.89
2023-05-14T05:20:24.187Z,9.91
2023-05-14T05:21:24.118Z,9.92
2023-05-14T05:22:24.182Z,9.92
2023-05-14T05:23:24.238Z,9.93
2023-05-14T05:24:24.316Z,9.92
2023-05-14T05:25:24.397Z,9.93
2023-05-14T05:26:24.490Z,9.98
2023-05-14T05:27:24.572Z,10.04
2023-05-14T05:28:24.666Z,10.09
2023-05-14T05:29:24.756Z,10.13
2023-05-14T05:30:25.081Z,10.17
2023-05-14T05:31:25.020Z,10.09
2023-05-14T05:32:25.005Z,10.06
2023-05-14T05:33:25.060Z,10.04
2023-05-14T05:34:25.153Z,10.07
2023-05-14T05:35:25.264Z,10.10
2023-05-14T05:36:25.377Z,10.14
2023-05-14T05:37:25.424Z,10.20
2023-05-14T05:38:25.489Z,10.24
2023-05-14T05:39:25.574Z,10.29
2023-05-14T05:40:25.845Z,10.34
2023-05-14T05:41:25.776Z,10.34
2023-05-14T05:42:25.815Z,10.36
2023-05-14T05:43:25.883Z,10.42
2023-05-14T05:44:25.973Z,10.51
2023-05-14T05:45:26.072Z,10.55
2023-05-14T05:46:26.183Z,10.65
2023-05-14T05:47:26.302Z,10.70
2023-05-14T05:48:26.306Z,10.98
2023-05-14T05:49:26.412Z,11.39
2023-05-14T05:50:26.455Z,11.77
2023-05-14T05:51:26.561Z,12.19
2023-05-14T05:52:26.622Z,12.54
2023-05-14T05:53:26.724Z,12.84
2023-05-14T05:54:26.799Z,13.16
2023-05-14T05:55:26.909Z,13.65
2023-05-14T05:56:28.506Z,13.98
2023-05-14T05:57:27.041Z,14.20
2023-05-14T05:58:27.130Z,14.38
2023-05-14T05:59:27.195Z,14.48
2023-05-14T06:00:27.408Z,14.79
2023-05-14T06:01:27.401Z,15.22
2023-05-14T06:02:27.528Z,15.53
2023-05-14T06:03:27.538Z,15.93
2023-05-14T06:04:27.600Z,16.23
2023-05-14T06:05:27.732Z,16.48
2023-05-14T06:06:27.755Z,16.69
2023-05-14T06:07:27.870Z,16.70
2023-05-14T06:08:27.932Z,16.91
2023-05-14T06:09:28.022Z,17.24
2023-05-14T06:10:28.075Z,17.66
2023-05-14T06:11:28.186Z,18.01
2023-05-14T06:12:28.290Z,18.11
2023-05-14T06:13:28.339Z,17.95
2023-05-14T06:14:28.387Z,17.89
2023-05-14T06:15:28.488Z,17.81
2023-05-14T06:16:28.604Z,18.14
2023-05-14T06:17:28.753Z,18.39
2023-05-14T06:18:28.748Z,18.91
2023-05-14T06:19:28.841Z,19.40
2023-05-14T06:20:28.964Z,19.90
2023-05-14T06:21:29.020Z,20.31
2023-05-14T06:22:29.086Z,20.17
2023-05-14T06:23:29.175Z,20.27
2023-05-14T06:24:29.264Z,20.71
2023-05-14T06:25:29.369Z,21.08
2023-05-14T06:26:29.454Z,20.91
2023-05-14T06:27:29.603Z,21.16
2023-05-14T06:28:29.637Z,21.48
2023-05-14T06:29:29.693Z,21.66
2023-05-14T06:30:29.786Z,21.66
2023-05-14T06:31:29.904Z,21.81
2023-05-14T06:32:29.994Z,22.01
2023-05-14T06:33:30.056Z,22.39
2023-05-14T06:34:30.134Z,22.45
2023-05-14T06:35:30.186Z,22.85
2023-05-14T06:36:30.298Z,23.26
2023-05-14T06:37:30.365Z,23.44
2023-05-14T06:38:30.419Z,23.44
2023-05-14T06:39:30.521Z,22.93
2023-05-14T06:40:30.597Z,22.61
2023-05-14T06:41:30.723Z,22.29
2023-05-14T06:42:30.812Z,22.26
2023-05-14T06:43:30.872Z,22.21
2023-05-14T06:44:30.919Z,22.51
2023-05-14T06:45:33.211Z,22.93
2023-05-14T06:46:31.096Z,23.12
2023-05-14T06:47:31.316Z,23.52
2023-05-14T06:48:31.316Z,23.72
2023-05-14T06:49:31.347Z,23.52
2023-05-14T06:50:31.401Z,23.60
2023-05-14T06:51:31.497Z,23.63
2023-05-14T06:52:31.589Z,23.54
2023-05-14T06:53:31.661Z,23.42
2023-05-14T06:54:31.717Z,22.82
2023-05-14T06:55:31.813Z,22.41
2023-05-14T06:56:31.870Z,22.63
2023-05-14T06:57:32.041Z,22.86
2023-05-14T06:58:32.054Z,22.91
2023-05-14T06:59:32.157Z,22.76
2023-05-14T07:00:32.209Z,23.03
2023-05-14T07:01:32.347Z,22.84
2023-05-14T07:02:32.444Z,23.03
2023-05-14T07:03:32.459Z,23.09
2023-05-14T07:04:32.572Z,23.22
2023-05-14T07:05:32.656Z,23.71
2023-05-14T07:06:32.709Z,24.15
2023-05-14T07:07:32.822Z,24.59
2023-05-14T07:08:32.886Z,25.01
2023-05-14T07:09:32.985Z,25.56
2023-05-14T07:10:33.089Z,25.71
2023-05-14T07:11:33.179Z,26.08
2023-05-14T07:12:33.359Z,26.61
2023-05-14T07:13:33.363Z,26.94
2023-05-14T07:14:33.426Z,27.09
2023-05-14T07:15:33.512Z,27.39
2023-05-14T07:16:33.576Z,26.91
2023-05-14T07:17:33.713Z,26.66
2023-05-14T07:18:33.730Z,26.75
2023-05-14T07:19:33.803Z,26.75
2023-05-14T07:20:33.857Z,27.02
2023-05-14T07:21:33.947Z,27.16
2023-05-14T07:22:34.053Z,27.50
2023-05-14T07:23:34.109Z,27.25
2023-05-14T07:24:34.171Z,27.39
2023-05-14T07:25:34.274Z,27.33
2023-05-14T07:26:34.329Z,27.35
2023-05-14T07:27:34.451Z,27.69
2023-05-14T07:28:34.482Z,27.21
2023-05-14T07:29:34.594Z,27.33
2023-05-14T07:30:34.645Z,27.78
2023-05-14T07:31:34.852Z,28.23
2023-05-14T07:32:34.879Z,28.57
2023-05-14T07:33:34.875Z,28.83
2023-05-14T07:34:34.970Z,28.60
2023-05-14T07:35:35.052Z,28.25
2023-05-14T07:36:35.148Z,28.25
2023-05-14T07:37:35.241Z,27.77
2023-05-14T07:38:35.302Z,27.55
2023-05-14T07:39:35.360Z,27.80
2023-05-14T07:40:35.460Z,28.27
2023-05-14T07:41:35.559Z,28.67
2023-05-14T07:42:36.967Z,28.85
2023-05-14T07:43:35.718Z,29.23
2023-05-14T07:44:35.825Z,29.37
2023-05-14T07:45:35.899Z,29.18
2023-05-14T07:46:35.973Z,29.36
2023-05-14T07:47:36.115Z,29.62
2023-05-14T07:48:36.143Z,29.20
2023-05-14T07:49:36.232Z,29.10
2023-05-14T07:50:36.246Z,29.32
2023-05-14T07:51:36.334Z,29.82
2023-05-14T07:52:36.446Z,30.07
2023-05-14T07:53:36.487Z,30.08
2023-05-14T07:54:36.576Z,29.97
2023-05-14T07:55:36.668Z,30.29
2023-05-14T07:56:36.755Z,30.30
2023-05-14T07:57:36.818Z,29.71
2023-05-14T07:58:36.877Z,29.84
2023-05-14T07:59:36.938Z,30.01
2023-05-14T08:00:37.059Z,29.27
2023-05-14T08:01:39.178Z,29.79
2023-05-14T08:02:37.365Z,30.36
2023-05-14T08:03:37.359Z,30.72
2023-05-14T08:04:37.487Z,30.85
2023-05-14T08:05:37.440Z,30.49
2023-05-14T08:06:37.540Z,29.32
2023-05-14T08:07:37.650Z,29.33
2023-05-14T08:08:37.697Z,28.67
2023-05-14T08:09:37.773Z,28.92
2023-05-14T08:10:37.909Z,29.17
2023-05-14T08:11:37.959Z,29.36
2023-05-14T08:12:38.072Z,29.91
2023-05-14T08:13:38.117Z,30.66
2023-05-14T08:14:38.211Z,31.03
2023-05-14T08:15:38.294Z,31.45
2023-05-14T08:16:38.445Z,31.68
2023-05-14T08:17:38.543Z,31.88
2023-05-14T08:18:38.603Z,32.14
2023-05-14T08:19:38.642Z,31.82
2023-05-14T08:20:38.729Z,31.82
2023-05-14T08:21:38.788Z,31.84
2023-05-14T08:22:38.907Z,32.12
2023-05-14T08:23:38.960Z,31.62
2023-05-14T08:24:39.065Z,31.19
2023-05-14T08:25:39.136Z,30.88
2023-05-14T08:26:39.235Z,31.20
2023-05-14T08:27:39.344Z,31.65
2023-05-14T08:28:39.393Z,32.31
2023-05-14T08:29:39.491Z,32.40
2023-05-14T08:30:39.603Z,32.59
2023-05-14T08:31:39.666Z,32.36
2023-05-14T08:32:39.817Z,32.56
2023-05-14T08:33:39.825Z,32.62
2023-05-14T08:34:39.937Z,32.54
2023-05-14T08:35:40.002Z,32.14
2023-05-14T08:36:40.107Z,32.07
2023-05-14T08:37:40.186Z,31.67
2023-05-14T08:38:40.237Z,31.53
2023-05-14T08:39:40.321Z,31.84
2023-05-14T08:40:40.371Z,31.69
2023-05-14T08:41:40.459Z,31.67
2023-05-14T08:42:40.585Z,31.99
2023-05-14T08:43:40.637Z,32.12
2023-05-14T08:44:40.740Z,32.58
2023-05-14T08:45:40.805Z,32.98
2023-05-14T08:46:40.907Z,33.20
2023-05-14T08:47:41.042Z,33.18
2023-05-14T08:48:41.050Z,33.15
2023-05-14T08:49:41.129Z,32.47
2023-05-14T08:50:41.171Z,32.17
2023-05-14T08:51:41.224Z,32.27
2023-05-14T08:52:41.390Z,32.41
2023-05-14T08:53:41.391Z,32.35
2023-05-14T08:54:41.501Z,32.32
2023-05-14T08:55:41.546Z,32.49
2023-05-14T08:56:41.642Z,32.58
2023-05-14T08:57:41.718Z,32.58
2023-05-14T08:58:41.772Z,32.68
2023-05-14T08:59:41.832Z,33.15
2023-05-14T09:00:41.921Z,33.28
2023-05-14T09:01:42.078Z,32.93
2023-05-14T09:02:42.173Z,32.72
2023-05-14T09:03:42.208Z,32.32
2023-05-14T09:04:42.238Z,32.32
2023-05-14T09:05:42.320Z,32.53
2023-05-14T09:06:42.417Z,32.19
2023-05-14T09:07:42.480Z,32.29
2023-05-14T09:08:42.577Z,32.56
2023-05-14T09:09:42.689Z,32.58
2023-05-14T09:10:42.764Z,32.85
2023-05-14T09:11:42.848Z,33.26
2023-05-14T09:12:42.958Z,33.56
2023-05-14T09:13:43.013Z,33.86
2023-05-14T09:14:43.062Z,33.75
2023-05-14T09:15:43.167Z,33.41
2023-05-14T09:16:43.319Z,33.14
2023-05-14T09:17:43.362Z,33.29
2023-05-14T09:18:43.434Z,32.96
2023-05-14T09:19:43.469Z,32.88
2023-05-14T09:20:43.563Z,33.00
2023-05-14T09:21:43.657Z,32.93
2023-05-14T09:22:43.758Z,33.18
2023-05-14T09:23:43.812Z,33.21
2023-05-14T09:24:44.133Z,32.81
2023-05-14T09:25:43.975Z,32.80
2023-05-14T09:26:44.071Z,32.99
2023-05-14T09:27:44.168Z,32.73
2023-05-14T09:28:44.239Z,31.98
2023-05-14T09:29:44.284Z,31.85
2023-05-14T09:30:44.412Z,31.31
2023-05-14T09:31:44.491Z,30.78
2023-05-14T09:32:44.627Z,30.83
2023-05-14T09:33:44.617Z,30.91
2023-05-14T09:34:44.717Z,30.30
2023-05-14T09:35:44.796Z,29.88
2023-05-14T09:36:44.895Z,30.03
2023-05-14T09:37:44.983Z,30.60
2023-05-14T09:38:45.037Z,31.04
2023-05-14T09:39:45.136Z,31.53
2023-05-14T09:40:45.220Z,32.16
2023-05-14T09:41:45.315Z,32.49
2023-05-14T09:42:45.442Z,32.61
2023-05-14T09:43:45.492Z,32.72
2023-05-14T09:44:45.592Z,32.71
2023-05-14T09:45:45.639Z,32.53
2023-05-14T09:46:45.737Z,32.07
2023-05-14T09:47:46.113Z,32.17
2023-05-14T09:48:46.091Z,32.12
2023-05-14T09:49:45.970Z,31.79
2023-05-14T09:50:46.037Z,31.40
2023-05-14T09:51:46.088Z,30.54
2023-05-14T09:52:46.202Z,30.19
2023-05-14T09:53:46.256Z,29.94
2023-05-14T09:54:46.360Z,29.86
2023-05-14T09:55:46.429Z,29.58
2023-05-14T09:56:46.599Z,29.03
2023-05-14T09:57:46.597Z,28.98
2023-05-14T09:58:46.654Z,29.15
2023-05-14T09:59:46.740Z,29.52
2023-05-14T10:00:46.856Z,30.03
2023-05-14T10:01:46.894Z,30.45
2023-05-14T10:02:47.121Z,30.48
2023-05-14T10:03:47.073Z,29.88
2023-05-14T10:04:47.314Z,30.03
2023-05-14T10:05:47.238Z,30.16
2023-05-14T10:06:47.329Z,30.34
2023-05-14T10:07:47.447Z,30.38
2023-05-14T10:08:47.491Z,30.61
2023-05-14T10:09:47.552Z,30.48
2023-05-14T10:10:47.647Z,29.76
2023-05-14T10:11:47.700Z,28.80
2023-05-14T10:12:47.825Z,28.54
2023-05-14T10:13:47.870Z,28.61
2023-05-14T10:14:47.975Z,28.79
2023-05-14T10:15:48.025Z,28.58
2023-05-14T10:16:48.232Z,28.55
2023-05-14T10:17:48.233Z,28.55
2023-05-14T10:18:48.365Z,28.55
2023-05-14T10:19:48.357Z,28.40
2023-05-14T10:20:48.450Z,28.73
2023-05-14T10:21:48.506Z,28.32
2023-05-14T10:22:48.620Z,27.61
2023-05-14T10:23:48.666Z,27.65
2023-05-14T10:24:48.767Z,27.76
2023-05-14T10:25:48.826Z,27.93
2023-05-14T10:26:48.939Z,28.08
2023-05-14T10:27:49.024Z,28.24
2023-05-14T10:28:49.080Z,27.90
2023-05-14T10:29:49.132Z,27.88
2023-05-14T10:30:49.250Z,27.74
2023-05-14T10:31:49.363Z,27.58
2023-05-14T10:32:49.435Z,27.45
2023-05-14T10:33:49.410Z,27.50
2023-05-14T10:34:49.504Z,27.62
2023-05-14T10:35:49.603Z,27.69
2023-05-14T10:36:49.669Z,27.40
2023-05-14T10:37:49.739Z,26.34
2023-05-14T10:38:49.799Z,25.44
2023-05-14T10:39:49.850Z,25.35
2023-05-14T10:40:51.586Z,25.38
2023-05-14T10:41:50.018Z,25.41
2023-05-14T10:42:50.132Z,25.44
2023-05-14T10:43:50.178Z,25.49
2023-05-14T10:44:50.279Z,25.61
2023-05-14T10:45:50.330Z,25.75
2023-05-14T10:46:50.490Z,25.78
2023-05-14T10:47:50.570Z,25.74
2023-05-14T10:48:50.594Z,25.63
2023-05-14T10:49:50.645Z,25.48
2023-05-14T10:50:50.770Z,25.39
2023-05-14T10:51:50.820Z,25.30
2023-05-14T10:52:50.937Z,25.29
2023-05-14T10:53:51.009Z,25.36
2023-05-14T10:54:51.093Z,25.29
2023-05-14T10:55:51.143Z,25.22
2023-05-14T10:56:51.241Z,25.05
2023-05-14T10:57:51.370Z,24.97
2023-05-14T10:58:51.432Z,24.82
2023-05-14T10:59:51.507Z,24.79
2023-05-14T11:00:51.608Z,24.64
2023-05-14T11:01:51.728Z,24.53
2023-05-14T11:02:51.806Z,24.60
2023-05-14T11:03:51.880Z,24.59
2023-05-14T11:04:51.922Z,24.52
2023-05-14T11:05:52.010Z,24.23
2023-05-14T11:06:52.108Z,24.09
2023-05-14T11:07:52.168Z,24.04
2023-05-14T11:08:52.237Z,23.97
2023-05-14T11:09:52.324Z,23.94
2023-05-14T11:10:52.436Z,23.94
2023-05-14T11:11:52.517Z,23.92
2023-05-14T11:12:52.617Z,23.84
2023-05-14T11:13:52.679Z,23.72
2023-05-14T11:14:52.753Z,23.57
2023-05-14T11:15:52.848Z,23.34
2023-05-14T11:16:52.961Z,23.14
2023-05-14T11:17:53.077Z,23.15
2023-05-14T11:18:53.134Z,23.21
2023-05-14T11:19:53.192Z,23.21
2023-05-14T11:20:53.281Z,23.37
2023-05-14T11:21:53.368Z,23.49
2023-05-14T11:22:53.484Z,23.52
2023-05-14T11:23:53.523Z,23.49
2023-05-14T11:24:53.616Z,23.63
2023-05-14T11:25:53.761Z,23.71
2023-05-14T11:26:53.794Z,23.86
2023-05-14T11:27:53.926Z,24.00
2023-05-14T11:28:53.986Z,24.16
2023-05-14T11:29:54.068Z,24.29
2023-05-14T11:30:54.163Z,24.45
2023-05-14T11:31:54.249Z,24.48
2023-05-14T11:32:54.400Z,24.56
2023-05-14T11:33:54.367Z,24.64
2023-05-14T11:34:54.473Z,24.68
2023-05-14T11:35:54.553Z,24.71
2023-05-14T11:36:54.659Z,24.66
2023-05-14T11:37:54.724Z,24.45
2023-05-14T11:38:54.821Z,24.23
2023-05-14T11:39:54.876Z,24.05
2023-05-14T11:40:54.971Z,23.84
2023-05-14T11:41:55.072Z,23.74
2023-05-14T11:42:55.166Z,23.69
2023-05-14T11:43:55.213Z,23.71
2023-05-14T11:44:55.317Z,23.60
2023-05-14T11:45:55.486Z,23.38
2023-05-14T11:46:55.475Z,23.18
2023-05-14T11:47:55.633Z,23.06
2023-05-14T11:48:55.616Z,23.06
2023-05-14T11:49:55.717Z,22.81
2023-05-14T11:50:55.778Z,22.72
2023-05-14T11:51:55.883Z,22.70
2023-05-14T11:52:55.966Z,22.75
2023-05-14T11:53:56.035Z,22.67
2023-05-14T11:54:56.089Z,22.61
2023-05-14T11:55:56.177Z,22.66
2023-05-14T11:56:56.245Z,22.70
2023-05-14T11:57:56.344Z,22.74
2023-05-14T11:58:56.399Z,22.75
2023-05-14T11:59:56.490Z,22.66
2023-05-14T12:00:56.585Z,22.60
2023-05-14T12:01:56.656Z,22.56
2023-05-14T12:02:56.851Z,22.46
2023-05-14T12:03:56.876Z,22.38
2023-05-14T12:04:56.914Z,22.35
2023-05-14T12:05:56.936Z,22.33
2023-05-14T12:06:57.009Z,22.33
2023-05-14T12:07:57.134Z,22.26
2023-05-14T12:08:57.166Z,22.19
2023-05-14T12:09:57.264Z,22.12
2023-05-14T12:10:57.355Z,22.15
2023-05-14T12:11:57.450Z,22.23
2023-05-14T12:12:57.563Z,22.31
2023-05-14T12:13:57.613Z,22.42
2023-05-14T12:14:57.657Z,22.56
2023-05-14T12:15:57.780Z,22.64
2023-05-14T12:16:57.813Z,22.75
2023-05-14T12:17:57.957Z,22.76
2023-05-14T12:18:58.019Z,22.84
2023-05-14T12:19:58.065Z,22.94
2023-05-14T12:20:58.161Z,23.06
2023-05-14T12:21:58.255Z,23.18
2023-05-14T12:22:58.346Z,23.25
2023-05-14T12:23:58.433Z,23.23
2023-05-14T12:24:58.538Z,23.23
2023-05-14T12:25:58.630Z,23.21
2023-05-14T12:26:58.706Z,23.09
2023-05-14T12:27:58.819Z,23.06
2023-05-14T12:28:58.902Z,23.06
2023-05-14T12:30:09.248Z,22.89
2023-05-14T12:30:59.142Z,22.81
2023-05-14T12:31:59.202Z,22.82
2023-05-14T12:32:59.275Z,22.88
2023-05-14T12:33:59.321Z,22.86
2023-05-14T12:34:59.375Z,22.82
2023-05-14T12:36:04.755Z,22.96
2023-05-14T12:36:59.536Z,22.89
2023-05-14T12:37:59.648Z,22.91
2023-05-14T12:38:59.703Z,22.97
2023-05-14T12:39:59.808Z,23.15
2023-05-14T12:40:59.865Z,23.25
2023-05-14T12:41:59.967Z,23.26
2023-05-14T12:43:00.062Z,23.15
2023-05-14T12:44:00.166Z,23.18
2023-05-14T12:45:00.192Z,23.23
2023-05-14T12:46:00.292Z,23.29
2023-05-14T12:47:00.363Z,23.34
2023-05-14T12:48:00.484Z,23.34
2023-05-14T12:49:00.510Z,23.23
2023-05-14T12:50:00.622Z,23.22
2023-05-14T12:51:00.705Z,23.18
2023-05-14T12:52:19.428Z,23.23
2023-05-14T12:53:00.915Z,23.15
2023-05-14T12:54:00.948Z,23.07
2023-05-14T12:55:01.043Z,23.00
2023-05-14T12:56:01.118Z,22.96
2023-05-14T12:57:01.180Z,22.96
2023-05-14T12:58:01.294Z,22.97
2023-05-14T12:59:01.336Z,22.86
2023-05-14T13:00:01.433Z,22.78
2023-05-14T13:01:01.637Z,22.70
2023-05-14T13:02:01.610Z,22.59
2023-05-14T13:03:01.733Z,22.38